createdAt,value
2018-12-05T00:00:59.936Z,1015.1
2018-12-05T00:02:02.041Z,1015.2
2018-12-05T00:03:04.064Z,1015.2
2018-12-05T00:04:06.115Z,1015.2
2018-12-05T00:05:08.429Z,1015.2
2018-12-05T00:06:10.438Z,1015.2
2018-12-05T00:07:13.137Z,1015.2
2018-12-05T00:08:15.167Z,1015.2
2018-12-05T00:09:17.207Z,1015.2
2018-12-05T00:10:19.503Z,1015.2
2018-12-05T00:11:21.536Z,1015.2
2018-12-05T00:12:23.590Z,1015.3
2018-12-05T00:13:25.627Z,1015.2
2018-12-05T00:14:28.052Z,1015.2
2018-12-05T00:15:30.072Z,1015.2
2018-12-05T00:16:32.172Z,1015.2
2018-12-05T00:17:34.206Z,1015.2
2018-12-05T00:18:36.235Z,1015.2
2018-12-05T00:19:38.264Z,1015.1
2018-12-05T00:20:40.299Z,1015.2
2018-12-05T00:21:42.604Z,1015.2
2018-12-05T00:22:44.629Z,1015.2
2018-12-05T00:23:46.687Z,1015.2
2018-12-05T00:24:48.718Z,1015.2
2018-12-05T00:25:50.751Z,1015.2
2018-12-05T00:26:52.789Z,1015.2
2018-12-05T00:27:54.826Z,1015.2
2018-12-05T00:28:56.847Z,1015.2
2018-12-05T00:29:58.885Z,1015.1
2018-12-05T00:31:00.892Z,1015.1
2018-12-05T00:32:03.595Z,1015.1
2018-12-05T00:33:05.697Z,1015.1
2018-12-05T00:34:07.725Z,1015.1
2018-12-05T00:35:09.745Z,1015.2
2018-12-05T00:36:12.080Z,1015.1
2018-12-05T00:37:14.157Z,1015.1
2018-12-05T00:38:16.175Z,1015.1
2018-12-05T00:39:18.246Z,1015
2018-12-05T00:40:20.281Z,1015.1
2018-12-05T00:41:22.312Z,1015.1
2018-12-05T00:42:24.344Z,1015
2018-12-05T00:43:26.368Z,1015
2018-12-05T00:44:28.411Z,1015.1
2018-12-05T00:45:30.428Z,1015
2018-12-05T00:46:32.726Z,1015.1
2018-12-05T00:47:34.756Z,1015.1
2018-12-05T00:48:37.156Z,1015.1
2018-12-05T00:49:39.192Z,1015.1
2018-12-05T00:50:41.279Z,1015.1
2018-12-05T00:51:43.581Z,1015
2018-12-05T00:52:45.600Z,1015.1
2018-12-05T00:53:48.303Z,1015.1
2018-12-05T00:54:50.418Z,1015.1
2018-12-05T00:55:52.449Z,1015.1
2018-12-05T00:56:54.569Z,1015.1
2018-12-05T00:57:57.261Z,1015.1
2018-12-05T00:58:59.277Z,1015.1
2018-12-05T01:00:01.325Z,1015.1
2018-12-05T01:01:03.915Z,1015.1
2018-12-05T01:02:05.930Z,1015.2
2018-12-05T01:03:07.971Z,1015.2
2018-12-05T01:04:10.058Z,1015.2
2018-12-05T01:05:12.086Z,1015.2
2018-12-05T01:06:14.865Z,1015.2
2018-12-05T01:07:16.903Z,1015.2
2018-12-05T01:08:18.915Z,1015.1
2018-12-05T01:09:20.956Z,1015.2
2018-12-05T01:10:22.982Z,1015.2
2018-12-05T01:11:25.004Z,1015.2
2018-12-05T01:12:27.047Z,1015.2
2018-12-05T01:13:29.067Z,1015.2
2018-12-05T01:14:31.127Z,1015.3
2018-12-05T01:15:33.819Z,1015.3
2018-12-05T01:16:35.883Z,1015.3
2018-12-05T01:17:37.904Z,1015.3
2018-12-05T01:18:39.938Z,1015.3
2018-12-05T01:19:41.963Z,1015.4
2018-12-05T01:20:44.386Z,1015.3
2018-12-05T01:21:46.401Z,1015.4
2018-12-05T01:22:48.458Z,1015.4
2018-12-05T01:23:50.489Z,1015.4
2018-12-05T01:24:52.589Z,1015.4
2018-12-05T01:25:54.608Z,1015.4
2018-12-05T01:26:56.639Z,1015.4
2018-12-05T01:27:58.655Z,1015.4
2018-12-05T01:29:01.064Z,1015.4
2018-12-05T01:30:03.103Z,1015.4
2018-12-05T01:31:05.130Z,1015.5
2018-12-05T01:32:07.154Z,1015.5
2018-12-05T01:33:09.468Z,1015.5
2018-12-05T01:34:11.491Z,1015.5
2018-12-05T01:35:13.509Z,1015.6
2018-12-05T01:36:15.545Z,1015.6
2018-12-05T01:37:17.556Z,1015.6
2018-12-05T01:38:19.593Z,1015.5
2018-12-05T01:39:21.910Z,1015.6
2018-12-05T01:40:23.939Z,1015.6
2018-12-05T01:41:26.038Z,1015.5
2018-12-05T01:42:28.066Z,1015.6
2018-12-05T01:43:30.097Z,1015.6
2018-12-05T01:44:32.117Z,1015.6
2018-12-05T01:45:34.235Z,1015.5
2018-12-05T01:46:36.546Z,1015.5
2018-12-05T01:47:38.575Z,1015.5
2018-12-05T01:48:41.005Z,1015.5
2018-12-05T01:49:43.323Z,1015.5
2018-12-05T01:50:45.340Z,1015.5
2018-12-05T01:51:47.370Z,1015.6
2018-12-05T01:52:49.786Z,1015.6
2018-12-05T01:53:52.078Z,1015.6
2018-12-05T01:54:54.158Z,1015.6
2018-12-05T01:55:56.469Z,1015.6
2018-12-05T01:56:58.502Z,1015.6
2018-12-05T01:58:00.524Z,1015.6
2018-12-05T01:59:02.544Z,1015.6
2018-12-05T02:00:04.576Z,1015.6
2018-12-05T02:01:06.628Z,1015.6
2018-12-05T02:02:08.663Z,1015.6
2018-12-05T02:03:10.702Z,1015.6
2018-12-05T02:04:12.728Z,1015.6
2018-12-05T02:05:14.745Z,1015.6
2018-12-05T02:06:16.780Z,1015.6
2018-12-05T02:07:18.811Z,1015.6
2018-12-05T02:08:20.854Z,1015.6
2018-12-05T02:09:22.893Z,1015.6
2018-12-05T02:10:24.905Z,1015.6
2018-12-05T02:11:26.933Z,1015.6
2018-12-05T02:12:29.348Z,1015.6
2018-12-05T02:13:31.374Z,1015.6
2018-12-05T02:14:33.414Z,1015.7
2018-12-05T02:15:35.828Z,1015.7
2018-12-05T02:16:37.859Z,1015.7
2018-12-05T02:17:39.879Z,1015.7
2018-12-05T02:18:41.919Z,1015.7
2018-12-05T02:19:43.951Z,1015.7
2018-12-05T02:20:46.269Z,1015.7
2018-12-05T02:21:48.288Z,1015.8
2018-12-05T02:22:50.324Z,1015.8
2018-12-05T02:23:52.345Z,1015.8
2018-12-05T02:24:54.375Z,1015.8
2018-12-05T02:25:56.404Z,1015.8
2018-12-05T02:26:58.414Z,1015.8
2018-12-05T02:28:00.458Z,1015.8
2018-12-05T02:29:02.584Z,1015.8
2018-12-05T02:30:04.660Z,1015.8
2018-12-05T02:31:06.734Z,1015.8
2018-12-05T02:32:09.074Z,1015.8
2018-12-05T02:33:11.103Z,1015.8
2018-12-05T02:34:13.428Z,1015.8
2018-12-05T02:35:15.479Z,1015.8
2018-12-05T02:36:18.162Z,1015.8
2018-12-05T02:37:20.749Z,1015.7
2018-12-05T02:38:22.811Z,1015.7
2018-12-05T02:39:24.831Z,1015.8
2018-12-05T02:40:27.495Z,1015.8
2018-12-05T02:41:29.524Z,1015.7
2018-12-05T02:42:32.031Z,1015.8
2018-12-05T02:43:34.078Z,1015.8
2018-12-05T02:44:36.492Z,1015.7
2018-12-05T02:45:39.080Z,1015.7
2018-12-05T02:46:41.112Z,1015.7
2018-12-05T02:47:43.522Z,1015.7
2018-12-05T02:48:45.539Z,1015.7
2018-12-05T02:49:47.573Z,1015.8
2018-12-05T02:50:49.914Z,1015.7
2018-12-05T02:51:51.930Z,1015.7
2018-12-05T02:52:54.247Z,1015.7
2018-12-05T02:53:56.553Z,1015.7
2018-12-05T02:54:59.259Z,1015.7
2018-12-05T02:56:01.280Z,1015.7
2018-12-05T02:57:03.310Z,1015.7
2018-12-05T02:58:05.913Z,1015.8
2018-12-05T02:59:08.212Z,1015.8
2018-12-05T03:00:10.547Z,1015.8
2018-12-05T03:01:12.580Z,1015.8
2018-12-05T03:02:14.608Z,1015.8
2018-12-05T03:03:16.680Z,1015.8
2018-12-05T03:04:18.747Z,1015.8
2018-12-05T03:05:20.766Z,1015.8
2018-12-05T03:06:22.812Z,1015.8
2018-12-05T03:07:24.827Z,1015.9
2018-12-05T03:08:26.863Z,1015.9
2018-12-05T03:09:28.895Z,1015.8
2018-12-05T03:10:30.927Z,1015.9
2018-12-05T03:11:33.364Z,1015.8
2018-12-05T03:12:35.380Z,1015.9
2018-12-05T03:13:37.706Z,1015.9
2018-12-05T03:14:39.737Z,1015.8
2018-12-05T03:15:41.758Z,1015.9
2018-12-05T03:16:43.804Z,1015.8
2018-12-05T03:17:45.839Z,1015.8
2018-12-05T03:18:48.149Z,1015.9
2018-12-05T03:19:50.828Z,1015.9
2018-12-05T03:20:53.149Z,1015.8
2018-12-05T03:21:55.175Z,1015.9
2018-12-05T03:22:57.209Z,1015.9
2018-12-05T03:23:59.247Z,1015.8
2018-12-05T03:25:01.258Z,1015.9
2018-12-05T03:26:03.967Z,1015.9
2018-12-05T03:27:06.362Z,1015.8
2018-12-05T03:28:08.397Z,1015.9
2018-12-05T03:29:10.818Z,1015.9
2018-12-05T03:30:13.136Z,1015.9
2018-12-05T03:31:16.149Z,1015.9
2018-12-05T03:32:18.879Z,1015.8
2018-12-05T03:33:21.250Z,1015.9
2018-12-05T03:34:24.983Z,1015.9
2018-12-05T03:35:27.294Z,1015.9
2018-12-05T03:36:29.628Z,1015.8
2018-12-05T03:37:31.952Z,1015.8
2018-12-05T03:38:33.975Z,1015.9
2018-12-05T03:39:36.023Z,1015.9
2018-12-05T03:40:38.041Z,1015.8
2018-12-05T03:41:40.675Z,1015.9
2018-12-05T03:42:43.005Z,1015.9
2018-12-05T03:43:45.045Z,1015.9
2018-12-05T03:44:47.082Z,1015.9
2018-12-05T03:45:49.122Z,1015.9
2018-12-05T03:46:51.447Z,1015.9
2018-12-05T03:47:53.475Z,1016
2018-12-05T03:48:55.889Z,1015.9
2018-12-05T03:49:57.934Z,1015.9
2018-12-05T03:50:59.962Z,1015.9
2018-12-05T03:52:02.003Z,1016
2018-12-05T03:53:04.367Z,1015.9
2018-12-05T03:54:07.073Z,1016
2018-12-05T03:55:09.153Z,1016
2018-12-05T03:56:11.188Z,1016
2018-12-05T03:57:13.607Z,1016
2018-12-05T03:58:15.907Z,1016
2018-12-05T03:59:17.941Z,1016
2018-12-05T04:00:19.975Z,1016
2018-12-05T04:01:22.395Z,1016
2018-12-05T04:02:24.702Z,1016
2018-12-05T04:03:26.749Z,1016.1
2018-12-05T04:04:28.795Z,1016.1
2018-12-05T04:05:31.120Z,1016
2018-12-05T04:06:33.173Z,1016
2018-12-05T04:07:35.195Z,1016
2018-12-05T04:08:37.222Z,1016
2018-12-05T04:09:39.543Z,1016
2018-12-05T04:10:41.574Z,1016
2018-12-05T04:11:43.591Z,1016
2018-12-05T04:12:45.645Z,1016
2018-12-05T04:13:47.668Z,1016
2018-12-05T04:14:49.998Z,1016.1
2018-12-05T04:15:52.327Z,1016.1
2018-12-05T04:16:54.361Z,1016.1
2018-12-05T04:17:57.052Z,1016
2018-12-05T04:18:59.087Z,1016.1
2018-12-05T04:20:01.402Z,1016.1
2018-12-05T04:21:03.431Z,1016.1
2018-12-05T04:22:05.464Z,1016
2018-12-05T04:23:07.879Z,1016
2018-12-05T04:24:10.196Z,1016
2018-12-05T04:25:12.229Z,1016.1
2018-12-05T04:26:14.671Z,1016
2018-12-05T04:27:16.712Z,1016
2018-12-05T04:28:18.732Z,1016
2018-12-05T04:29:20.775Z,1016
2018-12-05T04:30:22.819Z,1016
2018-12-05T04:31:24.834Z,1016
2018-12-05T04:32:26.865Z,1016.1
2018-12-05T04:33:28.976Z,1016
2018-12-05T04:34:31.012Z,1016.1
2018-12-05T04:35:33.339Z,1016.1
2018-12-05T04:36:35.659Z,1016.1
2018-12-05T04:37:38.062Z,1016.1
2018-12-05T04:38:40.378Z,1016.1
2018-12-05T04:39:42.413Z,1016.1
2018-12-05T04:40:44.432Z,1016.1
2018-12-05T04:41:46.457Z,1016
2018-12-05T04:42:48.507Z,1016
2018-12-05T04:43:50.544Z,1016.1
2018-12-05T04:44:52.565Z,1016.1
2018-12-05T04:45:54.989Z,1016.1
2018-12-05T04:46:57.007Z,1016.1
2018-12-05T04:47:59.041Z,1016.1
2018-12-05T04:49:01.074Z,1016.1
2018-12-05T04:50:03.112Z,1016.1
2018-12-05T04:51:05.151Z,1016.1
2018-12-05T04:52:07.249Z,1016.1
2018-12-05T04:53:09.850Z,1016.1
2018-12-05T04:54:11.876Z,1016.1
2018-12-05T04:55:14.577Z,1016.1
2018-12-05T04:56:16.587Z,1016.1
2018-12-05T04:57:18.631Z,1016.1
2018-12-05T04:58:21.060Z,1016
2018-12-05T04:59:23.093Z,1016
2018-12-05T05:00:25.427Z,1016
2018-12-05T05:01:28.129Z,1016.1
2018-12-05T05:02:30.431Z,1016
2018-12-05T05:03:32.448Z,1016.1
2018-12-05T05:04:34.494Z,1016.1
2018-12-05T05:05:36.807Z,1016.1
2018-12-05T05:06:42.412Z,1016.1
2018-12-05T05:07:44.483Z,1016.1
2018-12-05T05:08:46.798Z,1016.1
2018-12-05T05:09:49.496Z,1016.1
2018-12-05T05:10:51.528Z,1016.1
2018-12-05T05:11:53.629Z,1016.2
2018-12-05T05:12:55.654Z,1016.1
2018-12-05T05:13:57.972Z,1016.2
2018-12-05T05:15:00.047Z,1016.2
2018-12-05T05:16:02.068Z,1016.2
2018-12-05T05:17:04.677Z,1016.3
2018-12-05T05:18:06.718Z,1016.2
2018-12-05T05:19:09.030Z,1016.2
2018-12-05T05:20:12.265Z,1016.2
2018-12-05T05:21:15.649Z,1016.2
2018-12-05T05:22:17.982Z,1016.2
2018-12-05T05:23:20.295Z,1016.2
2018-12-05T05:24:22.898Z,1016.2
2018-12-05T05:25:24.925Z,1016.2
2018-12-05T05:26:26.953Z,1016.2
2018-12-05T05:27:29.001Z,1016.2
2018-12-05T05:28:31.017Z,1016.2
2018-12-05T05:29:33.064Z,1016.2
2018-12-05T05:30:35.087Z,1016.2
2018-12-05T05:31:37.117Z,1016.2
2018-12-05T05:32:39.142Z,1016.2
2018-12-05T05:33:41.173Z,1016.3
2018-12-05T05:34:43.191Z,1016.3
2018-12-05T05:35:45.224Z,1016.3
2018-12-05T05:36:47.649Z,1016.3
2018-12-05T05:37:49.676Z,1016.3
2018-12-05T05:38:51.710Z,1016.3
2018-12-05T05:39:53.799Z,1016.3
2018-12-05T05:40:56.397Z,1016.4
2018-12-05T05:41:58.417Z,1016.3
2018-12-05T05:43:00.731Z,1016.3
2018-12-05T05:44:03.047Z,1016.3
2018-12-05T05:45:05.361Z,1016.3
2018-12-05T05:46:07.377Z,1016.3
2018-12-05T05:47:09.413Z,1016.3
2018-12-05T05:48:11.436Z,1016.3
2018-12-05T05:49:13.451Z,1016.3
2018-12-05T05:50:15.473Z,1016.3
2018-12-05T05:51:17.502Z,1016.3
2018-12-05T05:52:19.526Z,1016.3
2018-12-05T05:53:21.562Z,1016.3
2018-12-05T05:54:24.258Z,1016.3
2018-12-05T05:55:26.279Z,1016.2
2018-12-05T05:56:28.305Z,1016.2
2018-12-05T05:57:30.333Z,1016.2
2018-12-05T05:58:32.353Z,1016.3
2018-12-05T05:59:34.380Z,1016.3
2018-12-05T06:00:36.408Z,1016.3
2018-12-05T06:01:38.422Z,1016.3
2018-12-05T06:02:40.467Z,1016.3
2018-12-05T06:03:42.487Z,1016.2
2018-12-05T06:04:44.514Z,1016.3
2018-12-05T06:05:46.548Z,1016.3
2018-12-05T06:06:48.577Z,1016.3
2018-12-05T06:07:50.593Z,1016.2
2018-12-05T06:08:52.620Z,1016.3
2018-12-05T06:09:54.661Z,1016.3
2018-12-05T06:10:56.681Z,1016.3
2018-12-05T06:11:58.719Z,1016.3
2018-12-05T06:13:00.742Z,1016.3
2018-12-05T06:14:03.080Z,1016.3
2018-12-05T06:15:05.101Z,1016.3
2018-12-05T06:16:07.828Z,1016.4
2018-12-05T06:17:09.879Z,1016.4
2018-12-05T06:18:11.912Z,1016.4
2018-12-05T06:19:13.948Z,1016.5
2018-12-05T06:20:15.968Z,1016.5
2018-12-05T06:21:17.988Z,1016.5
2018-12-05T06:22:20.027Z,1016.5
2018-12-05T06:23:22.446Z,1016.5
2018-12-05T06:24:24.468Z,1016.6
2018-12-05T06:25:26.513Z,1016.5
2018-12-05T06:26:28.555Z,1016.5
2018-12-05T06:27:30.597Z,1016.6
2018-12-05T06:28:32.633Z,1016.6
2018-12-05T06:29:34.666Z,1016.6
2018-12-05T06:30:36.687Z,1016.6
2018-12-05T06:31:38.720Z,1016.7
2018-12-05T06:32:40.746Z,1016.6
2018-12-05T06:33:42.769Z,1016.6
2018-12-05T06:34:44.816Z,1016.6
2018-12-05T06:35:46.836Z,1016.6
2018-12-05T06:36:48.865Z,1016.6
2018-12-05T06:37:50.897Z,1016.7
2018-12-05T06:38:52.939Z,1016.6
2018-12-05T06:39:54.989Z,1016.6
2018-12-05T06:40:57.028Z,1016.6
2018-12-05T06:41:59.334Z,1016.7
2018-12-05T06:43:01.351Z,1016.6
2018-12-05T06:44:03.397Z,1016.7
2018-12-05T06:45:05.411Z,1016.7
2018-12-05T06:46:07.728Z,1016.7
2018-12-05T06:47:10.027Z,1016.7
2018-12-05T06:48:12.074Z,1016.7
2018-12-05T06:49:14.383Z,1016.7
2018-12-05T06:50:16.440Z,1016.8
2018-12-05T06:51:18.481Z,1016.7
2018-12-05T06:52:20.508Z,1016.7
2018-12-05T06:53:22.887Z,1016.7
2018-12-05T06:54:25.479Z,1016.7
2018-12-05T06:55:27.501Z,1016.8
2018-12-05T06:56:29.533Z,1016.8
2018-12-05T06:57:31.585Z,1016.8
2018-12-05T06:58:33.609Z,1016.8
2018-12-05T06:59:35.926Z,1016.8
2018-12-05T07:00:37.957Z,1016.8
2018-12-05T07:01:40.382Z,1016.8
2018-12-05T07:02:42.409Z,1016.8
2018-12-05T07:03:44.438Z,1016.8
2018-12-05T07:04:46.555Z,1016.8
2018-12-05T07:05:48.577Z,1016.8
2018-12-05T07:06:50.601Z,1016.8
2018-12-05T07:07:53.032Z,1016.8
2018-12-05T07:08:55.059Z,1016.8
2018-12-05T07:09:57.101Z,1016.8
2018-12-05T07:10:59.134Z,1016.8
2018-12-05T07:12:01.167Z,1016.8
2018-12-05T07:13:05.212Z,1016.7
2018-12-05T07:14:07.547Z,1016.8
2018-12-05T07:15:09.577Z,1016.8
2018-12-05T07:16:11.593Z,1016.7
2018-12-05T07:17:13.623Z,1016.8
2018-12-05T07:18:15.640Z,1016.8
2018-12-05T07:19:17.675Z,1016.8
2018-12-05T07:20:19.706Z,1016.8
2018-12-05T07:21:21.758Z,1016.8
2018-12-05T07:22:23.775Z,1016.8
2018-12-05T07:23:25.810Z,1016.9
2018-12-05T07:24:27.840Z,1016.9
2018-12-05T07:25:29.863Z,1016.9
2018-12-05T07:26:31.898Z,1016.9
2018-12-05T07:27:33.921Z,1016.9
2018-12-05T07:28:35.938Z,1016.8
2018-12-05T07:29:37.959Z,1016.9
2018-12-05T07:30:39.987Z,1016.8
2018-12-05T07:31:42.009Z,1016.9
2018-12-05T07:32:44.065Z,1016.9
2018-12-05T07:33:46.091Z,1016.9
2018-12-05T07:34:48.117Z,1016.9
2018-12-05T07:35:50.141Z,1016.9
2018-12-05T07:36:52.168Z,1016.8
2018-12-05T07:37:54.465Z,1016.8
2018-12-05T07:38:56.573Z,1016.9
2018-12-05T07:39:58.607Z,1016.9
2018-12-05T07:41:00.630Z,1016.9
2018-12-05T07:42:02.754Z,1016.9
2018-12-05T07:43:04.777Z,1016.9
2018-12-05T07:44:06.803Z,1016.9
2018-12-05T07:45:08.825Z,1016.9
2018-12-05T07:46:11.243Z,1016.9
2018-12-05T07:47:13.261Z,1016.9
2018-12-05T07:48:15.289Z,1016.9
2018-12-05T07:49:17.317Z,1016.9
2018-12-05T07:50:19.327Z,1016.9
2018-12-05T07:51:21.743Z,1017
2018-12-05T07:52:23.769Z,1017
2018-12-05T07:53:25.796Z,1017
2018-12-05T07:54:27.814Z,1017
2018-12-05T07:55:29.841Z,1017
2018-12-05T07:56:32.146Z,1016.9
2018-12-05T07:57:34.163Z,1017
2018-12-05T07:58:36.218Z,1016.9
2018-12-05T07:59:38.246Z,1017
2018-12-05T08:00:40.551Z,1017
2018-12-05T08:01:42.664Z,1017
2018-12-05T08:02:44.689Z,1017
2018-12-05T08:03:46.705Z,1017
2018-12-05T08:04:48.730Z,1017
2018-12-05T08:05:50.749Z,1017.1
2018-12-05T08:06:52.780Z,1017
2018-12-05T08:07:54.808Z,1017
2018-12-05T08:08:56.831Z,1017.1
2018-12-05T08:09:58.852Z,1017
2018-12-05T08:11:00.888Z,1017
2018-12-05T08:12:02.914Z,1017
2018-12-05T08:13:04.949Z,1017
2018-12-05T08:14:32.681Z,1017
2018-12-05T08:15:34.824Z,1017
2018-12-05T08:16:36.931Z,1017
2018-12-05T08:17:39.044Z,1017
2018-12-05T08:18:41.153Z,1017
2018-12-05T08:19:43.325Z,1017
2018-12-05T08:20:45.435Z,1017
2018-12-05T08:21:47.551Z,1017
2018-12-05T08:22:49.669Z,1017
2018-12-05T08:23:52.057Z,1017
2018-12-05T08:24:54.566Z,1017.1
2018-12-05T08:25:56.679Z,1017.1
2018-12-05T08:26:58.875Z,1017.1
2018-12-05T08:28:01.265Z,1017.1
2018-12-05T08:29:03.390Z,1017.2
2018-12-05T08:30:05.506Z,1017.2
2018-12-05T08:31:07.626Z,1017.1
2018-12-05T08:32:09.753Z,1017.1
2018-12-05T08:33:11.872Z,1017.1
2018-12-05T08:34:13.989Z,1017.2
2018-12-05T08:35:16.118Z,1017.1
2018-12-05T08:36:18.257Z,1017.2
2018-12-05T08:37:20.372Z,1017.2
2018-12-05T08:38:22.560Z,1017.2
2018-12-05T08:39:24.666Z,1017.1
2018-12-05T08:40:26.789Z,1017.1
2018-12-05T08:41:29.193Z,1017.2
2018-12-05T08:42:31.742Z,1017.2
2018-12-05T08:43:33.851Z,1017.2
2018-12-05T08:44:36.055Z,1017.2
2018-12-05T08:45:38.173Z,1017.2
2018-12-05T08:46:40.297Z,1017.3
2018-12-05T08:47:42.432Z,1017.3
2018-12-05T08:48:44.537Z,1017.3
2018-12-05T08:49:46.668Z,1017.3
2018-12-05T08:50:48.785Z,1017.3
2018-12-05T08:51:50.913Z,1017.3
2018-12-05T08:52:53.324Z,1017.3
2018-12-05T08:53:55.434Z,1017.3
2018-12-05T08:54:57.543Z,1017.3
2018-12-05T08:55:59.675Z,1017.3
2018-12-05T08:57:01.843Z,1017.3
2018-12-05T08:58:04.562Z,1017.3
2018-12-05T08:59:06.692Z,1017.4
2018-12-05T09:00:09.210Z,1017.3
2018-12-05T09:01:11.317Z,1017.4
2018-12-05T09:02:13.447Z,1017.4
2018-12-05T09:03:15.558Z,1017.4
2018-12-05T09:04:17.749Z,1017.3
2018-12-05T09:05:19.947Z,1017.4
2018-12-05T09:06:22.061Z,1017.3
2018-12-05T09:07:24.194Z,1017.3
2018-12-05T09:08:26.325Z,1017.3
2018-12-05T09:09:28.437Z,1017.4
2018-12-05T09:10:30.548Z,1017.4
2018-12-05T09:11:32.673Z,1017.4
2018-12-05T09:12:34.782Z,1017.4
2018-12-05T09:13:36.901Z,1017.3
2018-12-05T09:14:39.076Z,1017.3
2018-12-05T09:15:41.241Z,1017.3
2018-12-05T09:16:43.639Z,1017.3
2018-12-05T09:17:46.346Z,1017.3
2018-12-05T09:18:48.467Z,1017.3
2018-12-05T09:19:50.588Z,1017.3
2018-12-05T09:20:52.741Z,1017.3
2018-12-05T09:21:54.859Z,1017.3
2018-12-05T09:22:56.988Z,1017.3
2018-12-05T09:23:59.132Z,1017.3
2018-12-05T09:25:01.267Z,1017.3
2018-12-05T09:26:03.397Z,1017.3
2018-12-05T09:27:05.543Z,1017.3
2018-12-05T09:28:07.751Z,1017.3
2018-12-05T09:29:09.872Z,1017.3
2018-12-05T09:30:11.994Z,1017.4
2018-12-05T09:31:14.135Z,1017.4
2018-12-05T09:32:16.546Z,1017.3
2018-12-05T09:33:18.668Z,1017.4
2018-12-05T09:34:20.792Z,1017.3
2018-12-05T09:35:22.930Z,1017.3
2018-12-05T09:36:25.048Z,1017.3
2018-12-05T09:37:27.162Z,1017.4
2018-12-05T09:38:29.300Z,1017.4
2018-12-05T09:39:31.716Z,1017.4
2018-12-05T09:40:33.835Z,1017.4
2018-12-05T09:41:35.964Z,1017.4
2018-12-05T09:42:39.706Z,1017.3
2018-12-05T09:43:41.901Z,1017.4
2018-12-05T09:44:44.023Z,1017.3
2018-12-05T09:45:46.142Z,1017.4
2018-12-05T09:46:48.264Z,1017.4
2018-12-05T09:47:50.403Z,1017.3
2018-12-05T09:48:52.548Z,1017.4
2018-12-05T09:49:54.672Z,1017.3
2018-12-05T09:50:57.114Z,1017.3
2018-12-05T09:51:59.236Z,1017.3
2018-12-05T09:53:01.397Z,1017.3
2018-12-05T09:54:03.537Z,1017.3
2018-12-05T09:55:05.649Z,1017.3
2018-12-05T09:56:07.776Z,1017.3
2018-12-05T09:57:09.900Z,1017.3
2018-12-05T09:58:12.041Z,1017.3
2018-12-05T09:59:14.553Z,1017.3
2018-12-05T10:00:16.691Z,1017.3
2018-12-05T10:01:19.109Z,1017.3
2018-12-05T10:02:21.532Z,1017.3
2018-12-05T10:03:23.684Z,1017.3
2018-12-05T10:04:25.799Z,1017.3
2018-12-05T10:05:27.942Z,1017.3
2018-12-05T10:06:30.350Z,1017.3
2018-12-05T10:07:32.500Z,1017.3
2018-12-05T10:08:35.016Z,1017.2
2018-12-05T10:09:37.156Z,1017.2
2018-12-05T10:10:39.288Z,1017.2
2018-12-05T10:11:41.410Z,1017.3
2018-12-05T10:12:43.547Z,1017.2
2018-12-05T10:13:45.669Z,1017.2
2018-12-05T10:14:47.876Z,1017.2
2018-12-05T10:15:49.999Z,1017.3
2018-12-05T10:16:52.141Z,1017.3
2018-12-05T10:17:54.267Z,1017.3
2018-12-05T10:18:56.402Z,1017.4
2018-12-05T10:19:58.841Z,1017.3
2018-12-05T10:21:00.956Z,1017.3
2018-12-05T10:22:03.089Z,1017.3
2018-12-05T10:23:05.230Z,1017.3
2018-12-05T10:24:09.643Z,1017.3
2018-12-05T10:25:11.778Z,1017.3
2018-12-05T10:26:13.917Z,1017.3
2018-12-05T10:27:16.040Z,1017.3
2018-12-05T10:28:18.179Z,1017.3
2018-12-05T10:29:20.321Z,1017.3
2018-12-05T10:30:22.472Z,1017.4
2018-12-05T10:31:24.586Z,1017.3
2018-12-05T10:32:26.735Z,1017.3
2018-12-05T10:33:29.240Z,1017.3
2018-12-05T10:34:31.373Z,1017.3
2018-12-05T10:35:33.531Z,1017.2
2018-12-05T10:36:35.658Z,1017.2
2018-12-05T10:37:38.078Z,1017.2
2018-12-05T10:38:40.209Z,1017.2
2018-12-05T10:39:42.350Z,1017.2
2018-12-05T10:40:44.475Z,1017.1
2018-12-05T10:41:46.615Z,1017.2
2018-12-05T10:42:48.746Z,1017.1
2018-12-05T10:43:50.874Z,1017
2018-12-05T10:44:53.027Z,1017
2018-12-05T10:45:55.151Z,1017
2018-12-05T10:46:57.283Z,1017
2018-12-05T10:47:59.413Z,1017
2018-12-05T10:49:01.562Z,1017
2018-12-05T10:50:03.817Z,1017.1
2018-12-05T10:51:05.939Z,1017.1
2018-12-05T10:52:08.073Z,1017.1
2018-12-05T10:53:10.194Z,1017.1
2018-12-05T10:54:12.403Z,1017
2018-12-05T10:55:14.534Z,1017.1
2018-12-05T10:56:16.673Z,1017
2018-12-05T10:57:19.083Z,1017
2018-12-05T10:58:21.218Z,1017
2018-12-05T10:59:23.746Z,1017.1
2018-12-05T11:00:25.864Z,1017
2018-12-05T11:01:28.153Z,1017
2018-12-05T11:02:30.311Z,1017
2018-12-05T11:03:32.453Z,1017
2018-12-05T11:04:34.570Z,1017
2018-12-05T11:05:37.015Z,1017
2018-12-05T11:06:39.415Z,1017
2018-12-05T11:07:41.545Z,1017
2018-12-05T11:08:43.977Z,1017
2018-12-05T11:09:46.089Z,1017
2018-12-05T11:10:48.233Z,1017.1
2018-12-05T11:11:50.357Z,1017
2018-12-05T11:12:52.490Z,1017
2018-12-05T11:13:54.599Z,1017
2018-12-05T11:14:56.742Z,1017
2018-12-05T11:15:58.873Z,1017
2018-12-05T11:17:00.995Z,1017
2018-12-05T11:18:03.146Z,1017
2018-12-05T11:19:05.653Z,1016.9
2018-12-05T11:20:08.171Z,1016.9
2018-12-05T11:21:10.316Z,1016.9
2018-12-05T11:22:12.446Z,1016.9
2018-12-05T11:23:14.565Z,1016.8
2018-12-05T11:24:16.701Z,1016.8
2018-12-05T11:25:18.920Z,1016.9
2018-12-05T11:26:21.062Z,1016.8
2018-12-05T11:27:23.184Z,1016.9
2018-12-05T11:28:25.320Z,1016.9
2018-12-05T11:29:27.752Z,1016.9
2018-12-05T11:30:29.861Z,1016.9
2018-12-05T11:31:31.998Z,1016.8
2018-12-05T11:32:34.129Z,1016.9
2018-12-05T11:33:36.248Z,1016.9
2018-12-05T11:34:38.752Z,1016.8
2018-12-05T11:35:40.891Z,1016.8
2018-12-05T11:36:43.034Z,1016.8
2018-12-05T11:37:45.156Z,1016.8
2018-12-05T11:38:47.299Z,1016.9
2018-12-05T11:39:49.419Z,1016.8
2018-12-05T11:40:51.829Z,1016.8
2018-12-05T11:41:53.969Z,1016.8
2018-12-05T11:42:56.120Z,1016.8
2018-12-05T11:43:58.269Z,1016.8
2018-12-05T11:45:00.676Z,1016.8
2018-12-05T11:46:03.418Z,1016.8
2018-12-05T11:47:05.621Z,1016.8
2018-12-05T11:48:07.761Z,1016.8
2018-12-05T11:49:09.883Z,1016.7
2018-12-05T11:50:12.020Z,1016.7
2018-12-05T11:51:14.165Z,1016.7
2018-12-05T11:52:16.290Z,1016.7
2018-12-05T11:53:18.430Z,1016.7
2018-12-05T11:54:20.563Z,1016.7
2018-12-05T11:55:22.690Z,1016.7
2018-12-05T11:56:24.834Z,1016.6
2018-12-05T11:57:27.060Z,1016.7
2018-12-05T11:58:29.192Z,1016.6
2018-12-05T11:59:32.021Z,1016.6
2018-12-05T12:00:34.166Z,1016.6
2018-12-05T12:01:36.290Z,1016.6
2018-12-05T12:02:38.476Z,1016.5
2018-12-05T12:03:40.593Z,1016.6
2018-12-05T12:04:42.754Z,1016.6
2018-12-05T12:05:45.269Z,1016.6
2018-12-05T12:06:47.395Z,1016.6
2018-12-05T12:07:49.540Z,1016.6
2018-12-05T12:08:51.666Z,1016.5
2018-12-05T12:09:54.075Z,1016.5
2018-12-05T12:10:56.272Z,1016.6
2018-12-05T12:11:58.424Z,1016.6
2018-12-05T12:13:00.549Z,1016.5
2018-12-05T12:14:02.753Z,1016.5
2018-12-05T12:15:04.906Z,1016.5
2018-12-05T12:16:07.420Z,1016.5
2018-12-05T12:17:09.574Z,1016.5
2018-12-05T12:18:11.720Z,1016.5
2018-12-05T12:19:13.871Z,1016.5
2018-12-05T12:20:16.076Z,1016.5
2018-12-05T12:21:18.226Z,1016.5
2018-12-05T12:22:20.354Z,1016.5
2018-12-05T12:23:22.489Z,1016.4
2018-12-05T12:24:25.036Z,1016.4
2018-12-05T12:25:27.442Z,1016.4
2018-12-05T12:26:33.624Z,1016.4
2018-12-05T12:27:35.804Z,1016.4
2018-12-05T12:28:37.939Z,1016.4
2018-12-05T12:29:40.066Z,1016.3
2018-12-05T12:30:42.198Z,1016.4
2018-12-05T12:31:44.902Z,1016.4
2018-12-05T12:32:47.025Z,1016.3
2018-12-05T12:33:49.175Z,1016.3
2018-12-05T12:34:51.311Z,1016.3
2018-12-05T12:35:53.438Z,1016.3
2018-12-05T12:36:55.579Z,1016.3
2018-12-05T12:37:57.991Z,1016.3
2018-12-05T12:39:00.123Z,1016.3
2018-12-05T12:40:02.272Z,1016.3
2018-12-05T12:41:04.709Z,1016.2
2018-12-05T12:42:06.862Z,1016.3
2018-12-05T12:43:08.999Z,1016.2
2018-12-05T12:44:11.526Z,1016.2
2018-12-05T12:45:13.641Z,1016.2
2018-12-05T12:46:15.778Z,1016.1
2018-12-05T12:47:17.907Z,1016.2
2018-12-05T12:48:20.023Z,1016.2
2018-12-05T12:49:22.241Z,1016.1
2018-12-05T12:50:24.353Z,1016.2
2018-12-05T12:51:26.480Z,1016.1
2018-12-05T12:52:28.900Z,1016.1
2018-12-05T12:53:31.057Z,1016.1
2018-12-05T12:54:33.172Z,1016.1
2018-12-05T12:55:35.297Z,1016.1
2018-12-05T12:56:38.201Z,1016
2018-12-05T12:57:40.706Z,1016
2018-12-05T12:58:42.845Z,1016
2018-12-05T12:59:44.975Z,1016
2018-12-05T13:00:47.103Z,1016
2018-12-05T13:01:49.247Z,1016
2018-12-05T13:02:51.389Z,1016
2018-12-05T13:03:53.507Z,1016